Últimos artigos:
Acender um LED com a tensão da rede eléctrica
Programação do Yaesu FT-60 para os EasySats
AO-91 (RadFxSat Fox-1B) está no Ar!
CT7AFR DIY CW-Keyer
Shutdown button for the Raspberry Pi
Simple C code to dump I2C device memory
Últimas fotos:
Últimos METARs:
LPAZ 181630Z 16008KT 9999 FEW008 19/17 Q10...
LPFR 181630Z 25014KT 9999 FEW003 SCT050 17...
LPHR 181630Z 15006KT 9999 SCT005 SCT010 19...
LPLA 181600Z /////KT 9999 FEW008 SCT015 19...
LPMA 181630Z 04007KT 010V080 CAVOK 19/13 Q...
LPPD 181630Z 19006KT 9999 FEW006 BKN014 18...
LPPR 181630Z 32011KT 9000 FEW013 BKN017 13...
LPPS 181630Z 12007KT CAVOK 18/12 Q1031=
LPPT 181630Z 29007KT 250V350 9999 SCT018 1...
Últimos QSOs:
2019/11/10-11:46 40m EA5INS (JON)
2019/11/10-11:43 40m G0FVH (DAVID.)
2019/11/10-11:38 40m EA4GU (MANUEL)
2019/11/10-11:38 40m EA7KAU (JUSTO)
2019/11/10-11:37 40m EA2CPG (PEDRO)
2019/11/10-11:36 40m CS7ALA (FELISBERTO)
  UTC
Rpi-6 CPU Temp: 454642.0 °C (251812Z)
IN51oq 1656Z /////KT //// 18/12 Q1023=
85265